sensor_id;sensor_type;location;lat;lon;timestamp;pressure;altitude;pressure_sealevel;temperature;humidity
29359;BME280;16347;53.232;6.556;2023-09-19T00:00:40;100358.09;;;17.90;65.51
29359;BME280;16347;53.232;6.556;2023-09-19T00:03:09;100362.69;;;18.03;65.24
29359;BME280;16347;53.232;6.556;2023-09-19T00:05:39;100364.13;;;17.61;66.37
29359;BME280;16347;53.232;6.556;2023-09-19T00:08:11;100368.56;;;17.62;66.55
29359;BME280;16347;53.232;6.556;2023-09-19T00:10:41;100373.84;;;17.64;67.17
29359;BME280;16347;53.232;6.556;2023-09-19T00:13:09;100371.28;;;17.75;66.42
29359;BME280;16347;53.232;6.556;2023-09-19T00:15:44;100379.56;;;17.62;66.44
29359;BME280;16347;53.232;6.556;2023-09-19T00:18:16;100385.41;;;17.85;66.33
29359;BME280;16347;53.232;6.556;2023-09-19T00:20:47;100382.72;;;17.72;66.34
29359;BME280;16347;53.232;6.556;2023-09-19T00:23:17;100391.41;;;17.56;66.32
29359;BME280;16347;53.232;6.556;2023-09-19T00:25:46;100397.31;;;17.47;66.78
29359;BME280;16347;53.232;6.556;2023-09-19T00:28:14;100392.47;;;17.49;65.99
29359;BME280;16347;53.232;6.556;2023-09-19T00:30:44;100398.81;;;17.49;66.00
29359;BME280;16347;53.232;6.556;2023-09-19T00:33:11;100396.44;;;17.53;65.90
29359;BME280;16347;53.232;6.556;2023-09-19T00:35:47;100400.72;;;17.49;64.88
29359;BME280;16347;53.232;6.556;2023-09-19T00:38:14;100396.88;;;17.50;65.00
29359;BME280;16347;53.232;6.556;2023-09-19T00:40:44;100397.16;;;17.35;65.59
29359;BME280;16347;53.232;6.556;2023-09-19T00:43:12;100404.31;;;17.36;65.63
29359;BME280;16347;53.232;6.556;2023-09-19T00:45:45;100413.22;;;17.18;64.93
29359;BME280;16347;53.232;6.556;2023-09-19T00:48:15;100416.16;;;17.17;65.11
29359;BME280;16347;53.232;6.556;2023-09-19T00:50:45;100414.47;;;17.03;65.66
29359;BME280;16347;53.232;6.556;2023-09-19T00:53:18;100418.06;;;16.97;66.02
29359;BME280;16347;53.232;6.556;2023-09-19T00:55:48;100422.72;;;17.09;65.65
29359;BME280;16347;53.232;6.556;2023-09-19T00:58:17;100424.63;;;17.09;65.61
29359;BME280;16347;53.232;6.556;2023-09-19T01:00:48;100421.84;;;16.82;65.83
29359;BME280;16347;53.232;6.556;2023-09-19T01:03:16;100436.25;;;17.04;66.04
29359;BME280;16347;53.232;6.556;2023-09-19T01:05:45;100434.56;;;17.03;65.65
29359;BME280;16347;53.232;6.556;2023-09-19T01:08:13;100441.31;;;17.01;65.23
29359;BME280;16347;53.232;6.556;2023-09-19T01:10:49;100443.22;;;17.13;65.22
29359;BME280;16347;53.232;6.556;2023-09-19T01:13:24;100442.59;;;17.11;64.90
29359;BME280;16347;53.232;6.556;2023-09-19T01:16:02;100450.84;;;17.05;64.95
29359;BME280;16347;53.232;6.556;2023-09-19T01:18:36;100453.34;;;17.00;64.79
29359;BME280;16347;53.232;6.556;2023-09-19T01:21:11;100456.09;;;17.00;64.77
29359;BME280;16347;53.232;6.556;2023-09-19T01:24:18;100445.75;;;16.95;64.76
29359;BME280;16347;53.232;6.556;2023-09-19T01:27:11;100449.56;;;17.07;64.30
29359;BME280;16347;53.232;6.556;2023-09-19T01:29:46;100440.47;;;17.00;64.03
29359;BME280;16347;53.232;6.556;2023-09-19T01:32:17;100452.31;;;17.07;63.14
29359;BME280;16347;53.232;6.556;2023-09-19T01:34:50;100455.69;;;17.16;63.22
29359;BME280;16347;53.232;6.556;2023-09-19T01:37:20;100452.94;;;17.16;62.82
29359;BME280;16347;53.232;6.556;2023-09-19T01:39:56;100458.66;;;17.01;62.36
29359;BME280;16347;53.232;6.556;2023-09-19T01:42:31;100458.41;;;17.03;62.30
29359;BME280;16347;53.232;6.556;2023-09-19T01:45:08;100461.81;;;17.11;61.82
29359;BME280;16347;53.232;6.556;2023-09-19T01:47:48;100469.19;;;16.91;61.93
29359;BME280;16347;53.232;6.556;2023-09-19T01:50:22;100467.06;;;16.86;62.72
29359;BME280;16347;53.232;6.556;2023-09-19T01:52:59;100460.94;;;16.84;62.21
29359;BME280;16347;53.232;6.556;2023-09-19T01:55:37;100459.84;;;16.72;62.18
29359;BME280;16347;53.232;6.556;2023-09-19T01:58:15;100464.28;;;16.67;62.10
29359;BME280;16347;53.232;6.556;2023-09-19T02:00:45;100473.50;;;16.53;62.43
29359;BME280;16347;53.232;6.556;2023-09-19T02:03:20;100464.31;;;16.73;62.57
29359;BME280;16347;53.232;6.556;2023-09-19T02:05:52;100457.34;;;16.77;62.37
29359;BME280;16347;53.232;6.556;2023-09-19T02:08:22;100464.31;;;16.73;62.30
29359;BME280;16347;53.232;6.556;2023-09-19T02:10:50;100462.22;;;16.82;61.45
29359;BME280;16347;53.232;6.556;2023-09-19T02:13:21;100456.75;;;16.88;61.43
29359;BME280;16347;53.232;6.556;2023-09-19T02:15:51;100466.66;;;16.89;61.15
29359;BME280;16347;53.232;6.556;2023-09-19T02:18:20;100461.38;;;16.75;61.65
29359;BME280;16347;53.232;6.556;2023-09-19T02:20:48;100461.75;;;16.65;61.93
29359;BME280;16347;53.232;6.556;2023-09-19T02:23:18;100463.00;;;16.63;62.12
29359;BME280;16347;53.232;6.556;2023-09-19T02:25:52;100459.66;;;16.80;61.73
29359;BME280;16347;53.232;6.556;2023-09-19T02:28:20;100475.97;;;16.88;61.66
29359;BME280;16347;53.232;6.556;2023-09-19T02:30:50;100467.50;;;16.90;61.72
29359;BME280;16347;53.232;6.556;2023-09-19T02:33:18;100478.72;;;16.95;61.70
29359;BME280;16347;53.232;6.556;2023-09-19T02:35:47;100471.94;;;16.98;61.75
29359;BME280;16347;53.232;6.556;2023-09-19T02:38:15;100476.13;;;16.67;62.66
29359;BME280;16347;53.232;6.556;2023-09-19T02:40:48;100468.09;;;16.79;62.20
29359;BME280;16347;53.232;6.556;2023-09-19T02:43:16;100463.69;;;16.71;62.19
29359;BME280;16347;53.232;6.556;2023-09-19T02:45:44;100476.53;;;16.64;61.70
29359;BME280;16347;53.232;6.556;2023-09-19T02:48:13;100463.69;;;16.78;61.69
29359;BME280;16347;53.232;6.556;2023-09-19T02:50:42;100471.47;;;16.68;61.75
29359;BME280;16347;53.232;6.556;2023-09-19T02:53:12;100472.41;;;16.40;62.35
29359;BME280;16347;53.232;6.556;2023-09-19T02:55:40;100476.16;;;16.26;62.61
29359;BME280;16347;53.232;6.556;2023-09-19T02:58:09;100472.38;;;16.27;62.59
29359;BME280;16347;53.232;6.556;2023-09-19T03:00:38;100477.81;;;16.21;62.95
29359;BME280;16347;53.232;6.556;2023-09-19T03:03:08;100480.16;;;16.24;62.69
29359;BME280;16347;53.232;6.556;2023-09-19T03:05:36;100476.31;;;16.18;63.16
29359;BME280;16347;53.232;6.556;2023-09-19T03:08:05;100491.94;;;16.18;62.49
29359;BME280;16347;53.232;6.556;2023-09-19T03:10:34;100483.81;;;15.97;63.79
29359;BME280;16347;53.232;6.556;2023-09-19T03:13:04;100486.03;;;16.14;63.12
29359;BME280;16347;53.232;6.556;2023-09-19T03:15:32;100488.97;;;16.19;63.03
29359;BME280;16347;53.232;6.556;2023-09-19T03:18:01;100486.28;;;16.26;63.09
29359;BME280;16347;53.232;6.556;2023-09-19T03:20:29;100482.72;;;15.91;62.84
29359;BME280;16347;53.232;6.556;2023-09-19T03:22:57;100479.81;;;15.99;62.77
29359;BME280;16347;53.232;6.556;2023-09-19T03:25:24;100489.09;;;15.98;62.55
29359;BME280;16347;53.232;6.556;2023-09-19T03:27:56;100495.06;;;16.08;62.69
29359;BME280;16347;53.232;6.556;2023-09-19T03:30:25;100504.75;;;16.04;62.39
29359;BME280;16347;53.232;6.556;2023-09-19T03:32:53;100502.16;;;15.96;62.46
29359;BME280;16347;53.232;6.556;2023-09-19T03:35:20;100503.44;;;16.00;62.16
29359;BME280;16347;53.232;6.556;2023-09-19T03:37:49;100501.78;;;16.06;61.73
29359;BME280;16347;53.232;6.556;2023-09-19T03:40:19;100501.59;;;16.07;61.93
29359;BME280;16347;53.232;6.556;2023-09-19T03:42:49;100497.97;;;16.00;62.50
29359;BME280;16347;53.232;6.556;2023-09-19T03:45:18;100500.25;;;15.97;62.71
29359;BME280;16347;53.232;6.556;2023-09-19T03:47:49;100500.50;;;16.02;62.81
29359;BME280;16347;53.232;6.556;2023-09-19T03:50:20;100507.03;;;16.01;62.61
29359;BME280;16347;53.232;6.556;2023-09-19T03:52:48;100487.47;;;16.10;62.86
29359;BME280;16347;53.232;6.556;2023-09-19T03:55:17;100495.34;;;15.85;63.54
29359;BME280;16347;53.232;6.556;2023-09-19T03:57:48;100509.66;;;15.81;63.67
29359;BME280;16347;53.232;6.556;2023-09-19T04:00:18;100497.13;;;16.00;63.77
29359;BME280;16347;53.232;6.556;2023-09-19T04:02:48;100503.00;;;15.97;64.34
29359;BME280;16347;53.232;6.556;2023-09-19T04:05:16;100511.81;;;15.92;64.66
29359;BME280;16347;53.232;6.556;2023-09-19T04:07:45;100509.13;;;15.99;64.66
29359;BME280;16347;53.232;6.556;2023-09-19T04:10:13;100507.41;;;15.91;64.96
29359;BME280;16347;53.232;6.556;2023-09-19T04:12:50;100506.44;;;16.12;65.07
29359;BME280;16347;53.232;6.556;2023-09-19T04:15:20;100511.88;;;15.99;65.65
29359;BME280;16347;53.232;6.556;2023-09-19T04:17:52;100504.91;;;15.96;65.66
29359;BME280;16347;53.232;6.556;2023-09-19T04:20:20;100508.16;;;16.13;65.16
29359;BME280;16347;53.232;6.556;2023-09-19T04:22:49;100510.50;;;16.16;65.07
29359;BME280;16347;53.232;6.556;2023-09-19T04:25:17;100521.31;;;15.89;65.44
29359;BME280;16347;53.232;6.556;2023-09-19T04:27:45;100516.53;;;15.98;65.97
29359;BME280;16347;53.232;6.556;2023-09-19T04:30:14;100509.13;;;15.99;66.28
29359;BME280;16347;53.232;6.556;2023-09-19T04:32:44;100524.38;;;16.08;65.61
29359;BME280;16347;53.232;6.556;2023-09-19T04:35:17;100520.72;;;15.94;65.71
29359;BME280;16347;53.232;6.556;2023-09-19T04:37:45;100503.22;;;16.02;65.55
29359;BME280;16347;53.232;6.556;2023-09-19T04:40:14;100511.09;;;16.05;66.18
29359;BME280;16347;53.232;6.556;2023-09-19T04:42:44;100526.31;;;16.14;65.85
29359;BME280;16347;53.232;6.556;2023-09-19T04:45:13;100540.88;;;16.14;65.96
29359;BME280;16347;53.232;6.556;2023-09-19T04:47:41;100547.88;;;15.89;66.64
29359;BME280;16347;53.232;6.556;2023-09-19T04:50:12;100530.28;;;16.05;66.11
29359;BME280;16347;53.232;6.556;2023-09-19T04:52:41;100522.75;;;15.85;67.03
29359;BME280;16347;53.232;6.556;2023-09-19T04:55:12;100528.94;;;15.94;66.78
29359;BME280;16347;53.232;6.556;2023-09-19T04:57:44;100535.47;;;15.93;66.96
29359;BME280;16347;53.232;6.556;2023-09-19T05:00:13;100540.59;;;16.03;66.76
29359;BME280;16347;53.232;6.556;2023-09-19T05:02:41;100540.13;;;15.99;67.20
29359;BME280;16347;53.232;6.556;2023-09-19T05:05:10;100546.47;;;16.00;67.24
29359;BME280;16347;53.232;6.556;2023-09-19T05:07:40;100537.22;;;16.01;67.33
29359;BME280;16347;53.232;6.556;2023-09-19T05:10:12;100541.25;;;16.05;67.32
29359;BME280;16347;53.232;6.556;2023-09-19T05:12:40;100547.91;;;15.96;68.06
29359;BME280;16347;53.232;6.556;2023-09-19T05:15:10;100540.63;;;16.09;67.76
29359;BME280;16347;53.232;6.556;2023-09-19T05:17:38;100541.03;;;16.06;67.65
29359;BME280;16347;53.232;6.556;2023-09-19T05:20:07;100541.22;;;15.98;67.81
29359;BME280;16347;53.232;6.556;2023-09-19T05:22:41;100544.72;;;15.92;68.29
29359;BME280;16347;53.232;6.556;2023-09-19T05:25:09;100543.78;;;16.06;67.92
29359;BME280;16347;53.232;6.556;2023-09-19T05:27:39;100537.25;;;16.07;67.77
29359;BME280;16347;53.232;6.556;2023-09-19T05:30:10;100541.06;;;16.13;67.94
29359;BME280;16347;53.232;6.556;2023-09-19T05:32:40;100547.22;;;16.15;67.71
29359;BME280;16347;53.232;6.556;2023-09-19T05:35:10;100554.22;;;16.24;67.34
29359;BME280;16347;53.232;6.556;2023-09-19T05:37:41;100551.41;;;16.11;68.08
29359;BME280;16347;53.232;6.556;2023-09-19T05:40:09;100554.25;;;15.96;67.94
29359;BME280;16347;53.232;6.556;2023-09-19T05:42:38;100557.34;;;16.14;68.08
29359;BME280;16347;53.232;6.556;2023-09-19T05:45:08;100556.53;;;16.20;67.70
29359;BME280;16347;53.232;6.556;2023-09-19T05:47:39;100556.06;;;16.17;67.42
29359;BME280;16347;53.232;6.556;2023-09-19T05:50:11;100548.06;;;16.22;67.86
29359;BME280;16347;53.232;6.556;2023-09-19T05:52:42;100549.63;;;16.31;67.62
29359;BME280;16347;53.232;6.556;2023-09-19T05:55:10;100546.84;;;16.24;67.39
29359;BME280;16347;53.232;6.556;2023-09-19T05:57:38;100548.59;;;15.98;68.38
29359;BME280;16347;53.232;6.556;2023-09-19T06:00:07;100532.25;;;16.17;67.79
29359;BME280;16347;53.232;6.556;2023-09-19T06:02:37;100548.22;;;16.07;67.87
29359;BME280;16347;53.232;6.556;2023-09-19T06:05:07;100556.06;;;16.17;67.82
29359;BME280;16347;53.232;6.556;2023-09-19T06:07:36;100553.81;;;16.27;67.98
29359;BME280;16347;53.232;6.556;2023-09-19T06:10:06;100577.13;;;16.10;68.19
29359;BME280;16347;53.232;6.556;2023-09-19T06:12:38;100580.88;;;16.02;69.22
29359;BME280;16347;53.232;6.556;2023-09-19T06:15:06;100591.16;;;16.21;69.03
29359;BME280;16347;53.232;6.556;2023-09-19T06:17:35;100591.88;;;16.09;69.07
29359;BME280;16347;53.232;6.556;2023-09-19T06:20:05;100583.09;;;16.20;68.91
29359;BME280;16347;53.232;6.556;2023-09-19T06:22:39;100590.69;;;16.18;68.50
29359;BME280;16347;53.232;6.556;2023-09-19T06:25:10;100588.06;;;16.03;68.30
29359;BME280;16347;53.232;6.556;2023-09-19T06:27:39;100597.72;;;15.99;68.82
29359;BME280;16347;53.232;6.556;2023-09-19T06:30:09;100597.22;;;16.17;68.55
29359;BME280;16347;53.232;6.556;2023-09-19T06:32:39;100597.44;;;16.22;67.63
29359;BME280;16347;53.232;6.556;2023-09-19T06:35:07;100589.72;;;16.32;67.44
29359;BME280;16347;53.232;6.556;2023-09-19T06:37:37;100590.28;;;16.21;67.67
29359;BME280;16347;53.232;6.556;2023-09-19T06:40:08;100586.47;;;16.22;67.79
29359;BME280;16347;53.232;6.556;2023-09-19T06:42:42;100584.72;;;16.08;67.62
29359;BME280;16347;53.232;6.556;2023-09-19T06:45:11;100580.91;;;16.09;67.77
29359;BME280;16347;53.232;6.556;2023-09-19T06:47:40;100578.25;;;16.22;67.17
29359;BME280;16347;53.232;6.556;2023-09-19T06:50:09;100582.97;;;16.28;67.30
29359;BME280;16347;53.232;6.556;2023-09-19T06:52:40;100579.72;;;16.18;67.52
29359;BME280;16347;53.232;6.556;2023-09-19T06:55:09;100574.28;;;16.24;66.75
29359;BME280;16347;53.232;6.556;2023-09-19T06:57:39;100583.63;;;16.36;66.51
29359;BME280;16347;53.232;6.556;2023-09-19T07:00:12;100581.28;;;16.33;66.71
29359;BME280;16347;53.232;6.556;2023-09-19T07:02:54;100585.78;;;16.41;66.59
29359;BME280;16347;53.232;6.556;2023-09-19T07:05:22;100572.91;;;16.41;66.19
29359;BME280;16347;53.232;6.556;2023-09-19T07:07:50;100590.84;;;16.44;66.45
29359;BME280;16347;53.232;6.556;2023-09-19T07:10:18;100596.44;;;16.29;66.86
29359;BME280;16347;53.232;6.556;2023-09-19T07:12:47;100585.56;;;16.42;67.56
29359;BME280;16347;53.232;6.556;2023-09-19T07:15:16;100587.06;;;16.45;67.61
29359;BME280;16347;53.232;6.556;2023-09-19T07:17:45;100588.94;;;16.38;67.60
29359;BME280;16347;53.232;6.556;2023-09-19T07:20:13;100599.94;;;16.45;67.48
29359;BME280;16347;53.232;6.556;2023-09-19T07:22:43;100591.31;;;16.54;67.20
29359;BME280;16347;53.232;6.556;2023-09-19T07:25:10;100596.16;;;16.52;67.32
29359;BME280;16347;53.232;6.556;2023-09-19T07:27:40;100604.38;;;16.52;67.45
29359;BME280;16347;53.232;6.556;2023-09-19T07:30:09;100592.13;;;16.41;67.25
29359;BME280;16347;53.232;6.556;2023-09-19T07:32:39;100599.75;;;16.53;67.21
29359;BME280;16347;53.232;6.556;2023-09-19T07:35:08;100609.03;;;16.45;67.54
29359;BME280;16347;53.232;6.556;2023-09-19T07:37:36;100589.94;;;16.65;67.30
29359;BME280;16347;53.232;6.556;2023-09-19T07:40:04;100594.31;;;16.59;67.28
29359;BME280;16347;53.232;6.556;2023-09-19T07:42:33;100617.38;;;16.30;68.38
29359;BME280;16347;53.232;6.556;2023-09-19T07:45:02;100602.13;;;16.21;68.91
29359;BME280;16347;53.232;6.556;2023-09-19T07:47:30;100578.91;;;16.24;69.10
29359;BME280;16347;53.232;6.556;2023-09-19T07:50:01;100594.03;;;16.48;68.45
29359;BME280;16347;53.232;6.556;2023-09-19T07:52:30;100594.59;;;16.36;68.40
29359;BME280;16347;53.232;6.556;2023-09-19T07:55:00;100595.81;;;16.55;68.12
29359;BME280;16347;53.232;6.556;2023-09-19T07:57:36;100601.72;;;16.59;67.72
29359;BME280;16347;53.232;6.556;2023-09-19T08:00:04;100604.09;;;16.68;67.30
29359;BME280;16347;53.232;6.556;2023-09-19T08:02:40;100597.41;;;16.50;67.86
29359;BME280;16347;53.232;6.556;2023-09-19T08:05:11;100610.03;;;16.37;68.23
29359;BME280;16347;53.232;6.556;2023-09-19T08:07:43;100593.81;;;16.49;68.37
29359;BME280;16347;53.232;6.556;2023-09-19T08:10:12;100597.19;;;16.45;68.12
29359;BME280;16347;53.232;6.556;2023-09-19T08:12:42;100611.59;;;16.53;68.14
29359;BME280;16347;53.232;6.556;2023-09-19T08:15:13;100625.09;;;16.48;68.37
29359;BME280;16347;53.232;6.556;2023-09-19T08:17:41;100611.97;;;16.43;68.44
29359;BME280;16347;53.232;6.556;2023-09-19T08:20:12;100608.63;;;16.48;68.54
29359;BME280;16347;53.232;6.556;2023-09-19T08:22:43;100607.28;;;16.37;68.52
29359;BME280;16347;53.232;6.556;2023-09-19T08:25:14;100604.34;;;16.46;68.63
29359;BME280;16347;53.232;6.556;2023-09-19T08:27:45;100604.69;;;16.29;68.92
29359;BME280;16347;53.232;6.556;2023-09-19T08:30:15;100620.09;;;16.58;68.22
29359;BME280;16347;53.232;6.556;2023-09-19T08:32:43;100615.16;;;16.47;69.19
29359;BME280;16347;53.232;6.556;2023-09-19T08:35:12;100626.03;;;16.62;68.50
29359;BME280;16347;53.232;6.556;2023-09-19T08:37:42;100615.53;;;16.72;68.80
29359;BME280;16347;53.232;6.556;2023-09-19T08:40:12;100613.94;;;16.97;67.65
29359;BME280;16347;53.232;6.556;2023-09-19T08:42:50;100607.34;;;16.85;67.77
29359;BME280;16347;53.232;6.556;2023-09-19T08:45:20;100598.06;;;16.99;67.78
29359;BME280;16347;53.232;6.556;2023-09-19T08:48:04;100608.00;;;17.00;66.76
29359;BME280;16347;53.232;6.556;2023-09-19T08:50:47;100600.16;;;16.84;67.84
29359;BME280;16347;53.232;6.556;2023-09-19T08:53:24;100601.28;;;17.09;67.22
29359;BME280;16347;53.232;6.556;2023-09-19T08:55:54;100589.47;;;17.09;67.20
29359;BME280;16347;53.232;6.556;2023-09-19T08:58:26;100603.34;;;16.94;67.37
29359;BME280;16347;53.232;6.556;2023-09-19T09:00:58;100596.84;;;17.08;66.86
29359;BME280;16347;53.232;6.556;2023-09-19T09:03:32;100612.41;;;16.88;66.97
29359;BME280;16347;53.232;6.556;2023-09-19T09:06:03;100610.16;;;17.05;66.94
29359;BME280;16347;53.232;6.556;2023-09-19T09:08:31;100614.84;;;17.17;66.63
29359;BME280;16347;53.232;6.556;2023-09-19T09:10:59;100624.56;;;17.26;66.20
29359;BME280;16347;53.232;6.556;2023-09-19T09:13:28;100617.41;;;17.25;65.72
29359;BME280;16347;53.232;6.556;2023-09-19T09:15:57;100620.94;;;17.13;66.17
29359;BME280;16347;53.232;6.556;2023-09-19T09:18:26;100617.63;;;17.30;66.32
29359;BME280;16347;53.232;6.556;2023-09-19T09:20:54;100607.16;;;17.00;66.37
29359;BME280;16347;53.232;6.556;2023-09-19T09:23:26;100615.66;;;17.11;66.52
29359;BME280;16347;53.232;6.556;2023-09-19T09:25:56;100620.78;;;17.34;66.23
29359;BME280;16347;53.232;6.556;2023-09-19T09:28:27;100609.81;;;17.47;65.43
29359;BME280;16347;53.232;6.556;2023-09-19T09:30:55;100611.72;;;17.47;65.96
29359;BME280;16347;53.232;6.556;2023-09-19T09:33:25;100608.53;;;17.36;66.41
29359;BME280;16347;53.232;6.556;2023-09-19T09:35:55;100600.94;;;17.38;66.52
29359;BME280;16347;53.232;6.556;2023-09-19T09:38:27;100599.69;;;17.48;66.25
29359;BME280;16347;53.232;6.556;2023-09-19T09:40:59;100598.22;;;17.52;66.34
29359;BME280;16347;53.232;6.556;2023-09-19T09:43:33;100590.81;;;17.46;65.50
29359;BME280;16347;53.232;6.556;2023-09-19T09:46:13;100627.19;;;17.54;65.40
29359;BME280;16347;53.232;6.556;2023-09-19T09:49:01;100611.38;;;17.69;65.60
29359;BME280;16347;53.232;6.556;2023-09-19T09:51:59;100589.78;;;17.66;65.39
29359;BME280;16347;53.232;6.556;2023-09-19T09:54:36;100596.53;;;17.90;64.30
29359;BME280;16347;53.232;6.556;2023-09-19T09:57:05;100600.16;;;17.64;64.96
29359;BME280;16347;53.232;6.556;2023-09-19T09:59:48;100597.53;;;17.43;65.15
29359;BME280;16347;53.232;6.556;2023-09-19T10:02:18;100593.78;;;17.57;65.15
29359;BME280;16347;53.232;6.556;2023-09-19T10:04:52;100590.84;;;17.78;64.27
29359;BME280;16347;53.232;6.556;2023-09-19T10:07:26;100596.13;;;17.67;64.62
29359;BME280;16347;53.232;6.556;2023-09-19T10:10:04;100582.13;;;17.55;64.85
29359;BME280;16347;53.232;6.556;2023-09-19T10:12:43;100569.69;;;17.72;64.20
29359;BME280;16347;53.232;6.556;2023-09-19T10:15:16;100569.03;;;17.83;63.66
29359;BME280;16347;53.232;6.556;2023-09-19T10:17:47;100574.78;;;17.88;63.21
29359;BME280;16347;53.232;6.556;2023-09-19T10:20:17;100585.13;;;17.73;62.33
29359;BME280;16347;53.232;6.556;2023-09-19T10:23:05;100586.81;;;18.01;61.79
29359;BME280;16347;53.232;6.556;2023-09-19T10:25:39;100569.66;;;18.05;61.44
29359;BME280;16347;53.232;6.556;2023-09-19T10:28:09;100563.91;;;18.20;60.78
29359;BME280;16347;53.232;6.556;2023-09-19T10:30:41;100583.16;;;18.20;59.52
29359;BME280;16347;53.232;6.556;2023-09-19T10:33:11;100563.31;;;18.11;59.58
29359;BME280;16347;53.232;6.556;2023-09-19T10:35:41;100558.16;;;18.34;60.46
29359;BME280;16347;53.232;6.556;2023-09-19T10:38:11;100577.28;;;18.16;61.62
29359;BME280;16347;53.232;6.556;2023-09-19T10:40:40;100553.97;;;18.25;62.09
29359;BME280;16347;53.232;6.556;2023-09-19T10:43:12;100551.34;;;18.50;61.32
29359;BME280;16347;53.232;6.556;2023-09-19T10:45:42;100561.09;;;18.59;61.13
29359;BME280;16347;53.232;6.556;2023-09-19T10:48:11;100574.47;;;18.36;61.15
29359;BME280;16347;53.232;6.556;2023-09-19T10:50:43;100561.81;;;18.15;60.76
29359;BME280;16347;53.232;6.556;2023-09-19T10:53:13;100551.25;;;18.12;60.80
29359;BME280;16347;53.232;6.556;2023-09-19T10:55:50;100545.03;;;18.30;60.12
29359;BME280;16347;53.232;6.556;2023-09-19T10:58:26;100567.31;;;18.15;60.02
29359;BME280;16347;53.232;6.556;2023-09-19T11:00:56;100551.84;;;18.21;60.41
29359;BME280;16347;53.232;6.556;2023-09-19T11:03:28;100538.97;;;18.15;60.13
29359;BME280;16347;53.232;6.556;2023-09-19T11:06:06;100540.88;;;18.01;60.65
29359;BME280;16347;53.232;6.556;2023-09-19T11:08:56;100535.59;;;18.13;60.28
29359;BME280;16347;53.232;6.556;2023-09-19T11:11:42;100532.41;;;18.09;60.81
29359;BME280;16347;53.232;6.556;2023-09-19T11:14:38;100531.72;;;18.20;60.58
29359;BME280;16347;53.232;6.556;2023-09-19T11:17:34;100540.81;;;18.34;60.55
29359;BME280;16347;53.232;6.556;2023-09-19T11:20:23;100511.84;;;18.18;60.52
29359;BME280;16347;53.232;6.556;2023-09-19T11:23:20;100536.00;;;18.16;61.01
29359;BME280;16347;53.232;6.556;2023-09-19T11:25:53;100543.38;;;18.29;60.53
29359;BME280;16347;53.232;6.556;2023-09-19T11:28:33;100531.28;;;18.36;60.92
29359;BME280;16347;53.232;6.556;2023-09-19T11:31:41;100519.59;;;18.41;60.95
29359;BME280;16347;53.232;6.556;2023-09-19T11:34:40;100548.91;;;18.16;60.97
29359;BME280;16347;53.232;6.556;2023-09-19T11:40:29;100515.41;;;18.32;61.15
29359;BME280;16347;53.232;6.556;2023-09-19T11:42:57;100511.16;;;18.42;61.08
29359;BME280;16347;53.232;6.556;2023-09-19T11:46:05;100508.19;;;18.37;60.62
29359;BME280;16347;53.232;6.556;2023-09-19T11:48:35;100496.28;;;18.43;60.13
29359;BME280;16347;53.232;6.556;2023-09-19T11:51:15;100473.22;;;18.44;60.11
29359;BME280;16347;53.232;6.556;2023-09-19T11:53:49;100501.91;;;18.75;60.00
29359;BME280;16347;53.232;6.556;2023-09-19T11:56:18;100511.75;;;18.44;59.91
29359;BME280;16347;53.232;6.556;2023-09-19T11:58:49;100496.13;;;18.32;60.65
29359;BME280;16347;53.232;6.556;2023-09-19T12:01:25;100510.06;;;18.43;60.80
29359;BME280;16347;53.232;6.556;2023-09-19T12:03:57;100489.09;;;18.49;60.41
29359;BME280;16347;53.232;6.556;2023-09-19T12:06:27;100494.59;;;18.56;60.42
29359;BME280;16347;53.232;6.556;2023-09-19T12:08:56;100494.81;;;18.54;60.75
29359;BME280;16347;53.232;6.556;2023-09-19T12:11:29;100496.13;;;18.32;61.76
29359;BME280;16347;53.232;6.556;2023-09-19T12:14:00;100489.56;;;18.39;61.50
29359;BME280;16347;53.232;6.556;2023-09-19T12:16:30;100479.56;;;18.45;61.44
29359;BME280;16347;53.232;6.556;2023-09-19T12:19:17;100483.00;;;18.34;61.67
29359;BME280;16347;53.232;6.556;2023-09-19T12:21:54;100485.59;;;18.22;62.07
29359;BME280;16347;53.232;6.556;2023-09-19T12:24:23;100482.88;;;18.16;62.28
29359;BME280;16347;53.232;6.556;2023-09-19T12:27:00;100477.03;;;18.43;62.00
29359;BME280;16347;53.232;6.556;2023-09-19T12:29:32;100474.66;;;18.54;61.74
29359;BME280;16347;53.232;6.556;2023-09-19T12:32:03;100481.28;;;18.39;62.74
29359;BME280;16347;53.232;6.556;2023-09-19T12:34:33;100516.22;;;18.39;63.04
29359;BME280;16347;53.232;6.556;2023-09-19T12:37:06;100495.53;;;18.23;65.01
29359;BME280;16347;53.232;6.556;2023-09-19T12:39:39;100481.16;;;18.15;64.79
29359;BME280;16347;53.232;6.556;2023-09-19T12:42:10;100477.75;;;18.26;64.80
29359;BME280;16347;53.232;6.556;2023-09-19T12:44:42;100489.38;;;18.28;64.27
29359;BME280;16347;53.232;6.556;2023-09-19T12:47:16;100461.00;;;18.27;64.17
29359;BME280;16347;53.232;6.556;2023-09-19T12:50:06;100455.66;;;18.39;63.65
29359;BME280;16347;53.232;6.556;2023-09-19T12:52:41;100450.56;;;18.42;62.87
29359;BME280;16347;53.232;6.556;2023-09-19T12:55:20;100454.75;;;18.58;62.46
29359;BME280;16347;53.232;6.556;2023-09-19T12:58:00;100456.16;;;18.67;62.36
29359;BME280;16347;53.232;6.556;2023-09-19T13:00:33;100445.44;;;18.59;62.56
29359;BME280;16347;53.232;6.556;2023-09-19T13:03:24;100424.88;;;18.62;62.31
29359;BME280;16347;53.232;6.556;2023-09-19T13:05:54;100446.53;;;18.52;61.76
29359;BME280;16347;53.232;6.556;2023-09-19T13:08:26;100452.66;;;18.54;62.12
29359;BME280;16347;53.232;6.556;2023-09-19T13:11:02;100455.94;;;18.75;61.65
29359;BME280;16347;53.232;6.556;2023-09-19T13:13:30;100442.06;;;18.51;62.67
29359;BME280;16347;53.232;6.556;2023-09-19T13:15:59;100443.59;;;18.33;62.70
29359;BME280;16347;53.232;6.556;2023-09-19T13:18:29;100458.41;;;18.45;63.08